sensor_id;sensor_type;location;lat;lon;timestamp;pressure;altitude;pressure_sealevel;temperature;humidity
3668;BME280;24099;47.102;15.440;2023-01-25T00:00:45;98653.91;;;2.31;100.00
3668;BME280;24099;47.102;15.440;2023-01-25T00:03:15;98648.50;;;2.20;100.00
3668;BME280;24099;47.102;15.440;2023-01-25T00:05:42;98655.19;;;2.24;100.00
3668;BME280;24099;47.102;15.440;2023-01-25T00:08:12;98657.34;;;2.18;100.00
3668;BME280;24099;47.102;15.440;2023-01-25T00:10:40;98655.47;;;2.05;100.00
3668;BME280;24099;47.102;15.440;2023-01-25T00:13:07;98649.91;;;1.97;100.00
3668;BME280;24099;47.102;15.440;2023-01-25T00:15:37;98648.97;;;1.84;100.00
3668;BME280;24099;47.102;15.440;2023-01-25T00:18:05;98650.81;;;1.82;100.00
3668;BME280;24099;47.102;15.440;2023-01-25T00:20:33;98648.59;;;1.76;100.00
3668;BME280;24099;47.102;15.440;2023-01-25T00:23:00;98650.19;;;1.49;100.00
3668;BME280;24099;47.102;15.440;2023-01-25T00:25:28;98653.50;;;1.36;100.00
3668;BME280;24099;47.102;15.440;2023-01-25T00:27:56;98653.50;;;1.36;100.00
3668;BME280;24099;47.102;15.440;2023-01-25T00:30:23;98647.56;;;1.34;100.00
3668;BME280;24099;47.102;15.440;2023-01-25T00:33:01;98647.56;;;1.34;100.00
3668;BME280;24099;47.102;15.440;2023-01-25T00:35:30;98654.03;;;1.27;100.00
3668;BME280;24099;47.102;15.440;2023-01-25T00:38:01;98649.19;;;1.21;100.00
3668;BME280;24099;47.102;15.440;2023-01-25T00:40:33;98648.38;;;1.05;100.00
3668;BME280;24099;47.102;15.440;2023-01-25T00:43:00;98646.16;;;0.99;100.00
3668;BME280;24099;47.102;15.440;2023-01-25T00:45:31;98647.56;;;0.89;100.00
3668;BME280;24099;47.102;15.440;2023-01-25T00:48:00;98647.06;;;0.98;100.00
3668;BME280;24099;47.102;15.440;2023-01-25T00:50:28;98649.66;;;0.98;100.00
3668;BME280;24099;47.102;15.440;2023-01-25T00:52:56;98654.84;;;0.98;100.00
3668;BME280;24099;47.102;15.440;2023-01-25T00:55:24;98649.16;;;0.91;100.00
3668;BME280;24099;47.102;15.440;2023-01-25T00:57:52;98652.84;;;0.87;100.00
3668;BME280;24099;47.102;15.440;2023-01-25T01:00:22;98656.09;;;0.91;100.00
3668;BME280;24099;47.102;15.440;2023-01-25T01:02:50;98657.53;;;0.65;100.00
3668;BME280;24099;47.102;15.440;2023-01-25T01:05:20;98649.06;;;0.46;100.00
3668;BME280;24099;47.102;15.440;2023-01-25T01:07:49;98657.59;;;0.32;100.00
3668;BME280;24099;47.102;15.440;2023-01-25T01:10:18;98658.19;;;0.53;100.00
3668;BME280;24099;47.102;15.440;2023-01-25T01:12:46;98656.13;;;0.59;100.00
3668;BME280;24099;47.102;15.440;2023-01-25T01:15:14;98656.38;;;0.55;100.00
3668;BME280;24099;47.102;15.440;2023-01-25T01:17:42;98656.44;;;0.38;100.00
3668;BME280;24099;47.102;15.440;2023-01-25T01:20:12;98640.78;;;0.23;100.00
3668;BME280;24099;47.102;15.440;2023-01-25T01:22:42;98647.47;;;0.12;100.00
3668;BME280;24099;47.102;15.440;2023-01-25T01:25:10;98651.72;;;0.13;100.00
3668;BME280;24099;47.102;15.440;2023-01-25T01:27:39;98653.63;;;0.09;100.00
3668;BME280;24099;47.102;15.440;2023-01-25T01:30:09;98647.34;;;-0.03;100.00
3668;BME280;24099;47.102;15.440;2023-01-25T01:32:38;98650.81;;;0.14;100.00
3668;BME280;24099;47.102;15.440;2023-01-25T01:35:07;98644.97;;;0.26;100.00
3668;BME280;24099;47.102;15.440;2023-01-25T01:37:35;98646.69;;;0.10;100.00
3668;BME280;24099;47.102;15.440;2023-01-25T01:40:06;98647.16;;;0.33;100.00
3668;BME280;24099;47.102;15.440;2023-01-25T01:42:54;98646.31;;;0.33;100.00
3668;BME280;24099;47.102;15.440;2023-01-25T01:45:50;98650.66;;;0.32;100.00
3668;BME280;24099;47.102;15.440;2023-01-25T01:48:32;98661.34;;;0.42;100.00
3668;BME280;24099;47.102;15.440;2023-01-25T01:51:04;98654.03;;;0.50;100.00
3668;BME280;24099;47.102;15.440;2023-01-25T01:53:37;98652.50;;;0.30;100.00
3668;BME280;24099;47.102;15.440;2023-01-25T01:56:12;98651.66;;;0.46;100.00
3668;BME280;24099;47.102;15.440;2023-01-25T01:58:43;98659.19;;;0.66;100.00
3668;BME280;24099;47.102;15.440;2023-01-25T02:01:12;98665.53;;;0.60;100.00
3668;BME280;24099;47.102;15.440;2023-01-25T02:03:42;98667.41;;;0.58;100.00
3668;BME280;24099;47.102;15.440;2023-01-25T02:06:14;98658.03;;;0.56;100.00
3668;BME280;24099;47.102;15.440;2023-01-25T02:08:44;98658.44;;;0.64;100.00
3668;BME280;24099;47.102;15.440;2023-01-25T02:11:13;98659.94;;;0.68;100.00
3668;BME280;24099;47.102;15.440;2023-01-25T02:13:41;98649.59;;;0.68;100.00
3668;BME280;24099;47.102;15.440;2023-01-25T02:16:14;98645.66;;;0.61;100.00
3668;BME280;24099;47.102;15.440;2023-01-25T02:18:43;98635.97;;;0.64;100.00
3668;BME280;24099;47.102;15.440;2023-01-25T02:21:11;98645.00;;;0.57;100.00
3668;BME280;24099;47.102;15.440;2023-01-25T02:23:43;98640.81;;;0.71;100.00
3668;BME280;24099;47.102;15.440;2023-01-25T02:26:15;98642.50;;;0.72;100.00
3668;BME280;24099;47.102;15.440;2023-01-25T02:28:49;98642.50;;;0.72;100.00
3668;BME280;24099;47.102;15.440;2023-01-25T02:31:23;98642.81;;;0.65;100.00
3668;BME280;24099;47.102;15.440;2023-01-25T02:33:52;98637.47;;;0.68;100.00
3668;BME280;24099;47.102;15.440;2023-01-25T02:36:23;98640.97;;;0.67;100.00
3668;BME280;24099;47.102;15.440;2023-01-25T02:38:54;98642.50;;;0.72;100.00
3668;BME280;24099;47.102;15.440;2023-01-25T02:41:31;98642.56;;;0.70;100.00
3668;BME280;24099;47.102;15.440;2023-01-25T02:44:02;98634.72;;;0.56;100.00
3668;BME280;24099;47.102;15.440;2023-01-25T02:46:32;98628.03;;;0.67;100.00
3668;BME280;24099;47.102;15.440;2023-01-25T02:49:02;98626.34;;;0.66;100.00
3668;BME280;24099;47.102;15.440;2023-01-25T02:51:32;98622.44;;;0.59;100.00
3668;BME280;24099;47.102;15.440;2023-01-25T02:54:01;98627.09;;;0.68;100.00
3668;BME280;24099;47.102;15.440;2023-01-25T02:56:31;98622.25;;;0.62;100.00
3668;BME280;24099;47.102;15.440;2023-01-25T02:59:00;98622.75;;;0.85;100.00
3668;BME280;24099;47.102;15.440;2023-01-25T03:01:33;98616.84;;;0.51;100.00
3668;BME280;24099;47.102;15.440;2023-01-25T03:04:02;98611.72;;;0.65;100.00
3668;BME280;24099;47.102;15.440;2023-01-25T03:06:31;98608.91;;;0.54;100.00
3668;BME280;24099;47.102;15.440;2023-01-25T03:08:59;98609.81;;;0.53;100.00
3668;BME280;24099;47.102;15.440;2023-01-25T03:11:29;98603.66;;;0.56;100.00
3668;BME280;24099;47.102;15.440;2023-01-25T03:13:59;98604.06;;;0.48;100.00
3668;BME280;24099;47.102;15.440;2023-01-25T03:16:30;98605.28;;;0.41;100.00
3668;BME280;24099;47.102;15.440;2023-01-25T03:19:01;98605.72;;;0.65;100.00
3668;BME280;24099;47.102;15.440;2023-01-25T03:21:29;98600.63;;;0.63;100.00
3668;BME280;24099;47.102;15.440;2023-01-25T03:23:58;98603.13;;;0.65;100.00
3668;BME280;24099;47.102;15.440;2023-01-25T03:26:32;98600.13;;;0.73;100.00
3668;BME280;24099;47.102;15.440;2023-01-25T03:29:25;98599.84;;;0.61;100.00
3668;BME280;24099;47.102;15.440;2023-01-25T03:31:53;98591.75;;;0.67;100.00
3668;BME280;24099;47.102;15.440;2023-01-25T03:34:21;98595.84;;;0.72;100.00
3668;BME280;24099;47.102;15.440;2023-01-25T03:36:49;98589.00;;;0.71;100.00
3668;BME280;24099;47.102;15.440;2023-01-25T03:39:17;98594.19;;;0.71;100.00
3668;BME280;24099;47.102;15.440;2023-01-25T03:41:47;98588.56;;;0.62;100.00
3668;BME280;24099;47.102;15.440;2023-01-25T03:44:15;98585.50;;;0.72;100.00
3668;BME280;24099;47.102;15.440;2023-01-25T03:46:45;98587.00;;;0.76;100.00
3668;BME280;24099;47.102;15.440;2023-01-25T03:49:12;98583.41;;;0.78;100.00
3668;BME280;24099;47.102;15.440;2023-01-25T03:51:43;98582.38;;;0.81;100.00
3668;BME280;24099;47.102;15.440;2023-01-25T03:54:11;98585.31;;;0.75;100.00
3668;BME280;24099;47.102;15.440;2023-01-25T03:56:40;98587.84;;;0.76;100.00
3668;BME280;24099;47.102;15.440;2023-01-25T03:59:26;98590.13;;;0.81;100.00
3668;BME280;24099;47.102;15.440;2023-01-25T04:01:55;98587.75;;;0.78;100.00
3668;BME280;24099;47.102;15.440;2023-01-25T04:04:23;98584.66;;;0.71;100.00
3668;BME280;24099;47.102;15.440;2023-01-25T04:06:51;98578.63;;;0.71;100.00
3668;BME280;24099;47.102;15.440;2023-01-25T04:09:20;98575.13;;;0.72;100.00
3668;BME280;24099;47.102;15.440;2023-01-25T04:11:52;98567.69;;;0.65;100.00
3668;BME280;24099;47.102;15.440;2023-01-25T04:14:19;98572.28;;;0.76;100.00
3668;BME280;24099;47.102;15.440;2023-01-25T04:16:58;98574.50;;;0.82;100.00
3668;BME280;24099;47.102;15.440;2023-01-25T04:19:36;98572.53;;;0.72;100.00
3668;BME280;24099;47.102;15.440;2023-01-25T04:22:06;98562.44;;;0.67;100.00
3668;BME280;24099;47.102;15.440;2023-01-25T04:24:37;98563.84;;;0.73;100.00
3668;BME280;24099;47.102;15.440;2023-01-25T04:27:05;98562.16;;;0.72;100.00
3668;BME280;24099;47.102;15.440;2023-01-25T04:29:40;98565.00;;;0.67;100.00
3668;BME280;24099;47.102;15.440;2023-01-25T04:32:11;98551.41;;;0.63;100.00
3668;BME280;24099;47.102;15.440;2023-01-25T04:34:39;98555.75;;;0.63;100.00
3668;BME280;24099;47.102;15.440;2023-01-25T04:37:11;98555.66;;;0.64;100.00
3668;BME280;24099;47.102;15.440;2023-01-25T04:39:50;98554.25;;;0.59;100.00
3668;BME280;24099;47.102;15.440;2023-01-25T04:42:19;98560.44;;;0.56;100.00
3668;BME280;24099;47.102;15.440;2023-01-25T04:44:50;98551.50;;;0.46;100.00
3668;BME280;24099;47.102;15.440;2023-01-25T04:47:20;98560.03;;;0.48;100.00
3668;BME280;24099;47.102;15.440;2023-01-25T04:49:47;98567.28;;;0.42;100.00
3668;BME280;24099;47.102;15.440;2023-01-25T04:52:18;98564.47;;;0.30;100.00
3668;BME280;24099;47.102;15.440;2023-01-25T04:54:46;98565.31;;;0.31;100.00
3668;BME280;24099;47.102;15.440;2023-01-25T04:57:15;98563.53;;;0.47;100.00
3668;BME280;24099;47.102;15.440;2023-01-25T04:59:48;98567.13;;;0.45;100.00
3668;BME280;24099;47.102;15.440;2023-01-25T05:02:16;98561.53;;;0.52;100.00
3668;BME280;24099;47.102;15.440;2023-01-25T05:04:45;98565.38;;;0.45;100.00
3668;BME280;24099;47.102;15.440;2023-01-25T05:07:13;98561.88;;;0.30;100.00
3668;BME280;24099;47.102;15.440;2023-01-25T05:09:41;98568.13;;;0.26;100.00
3668;BME280;24099;47.102;15.440;2023-01-25T05:12:10;98568.13;;;0.26;100.00
3668;BME280;24099;47.102;15.440;2023-01-25T05:14:54;98571.06;;;0.36;100.00
3668;BME280;24099;47.102;15.440;2023-01-25T05:17:22;98573.81;;;0.49;100.00
3668;BME280;24099;47.102;15.440;2023-01-25T05:19:52;98565.88;;;0.52;100.00
3668;BME280;24099;47.102;15.440;2023-01-25T05:22:22;98563.53;;;0.47;100.00
3668;BME280;24099;47.102;15.440;2023-01-25T05:24:52;98559.19;;;0.48;100.00
3668;BME280;24099;47.102;15.440;2023-01-25T05:27:21;98557.09;;;0.54;100.00
3668;BME280;24099;47.102;15.440;2023-01-25T05:29:55;98568.22;;;0.56;100.00
3668;BME280;24099;47.102;15.440;2023-01-25T05:32:31;98569.88;;;0.57;100.00
3668;BME280;24099;47.102;15.440;2023-01-25T05:35:00;98557.84;;;0.56;100.00
3668;BME280;24099;47.102;15.440;2023-01-25T05:37:28;98557.78;;;0.58;100.00
3668;BME280;24099;47.102;15.440;2023-01-25T05:40:05;98565.63;;;0.56;100.00
3668;BME280;24099;47.102;15.440;2023-01-25T05:42:39;98567.22;;;0.59;100.00
3668;BME280;24099;47.102;15.440;2023-01-25T05:45:18;98576.00;;;0.56;100.00
3668;BME280;24099;47.102;15.440;2023-01-25T05:47:52;98572.13;;;0.63;100.00
3668;BME280;24099;47.102;15.440;2023-01-25T05:50:24;98581.00;;;0.59;100.00
3668;BME280;24099;47.102;15.440;2023-01-25T05:52:59;98578.06;;;0.65;100.00
3668;BME280;24099;47.102;15.440;2023-01-25T05:55:34;98579.34;;;0.58;100.00
3668;BME280;24099;47.102;15.440;2023-01-25T05:58:08;98580.50;;;0.53;100.00
3668;BME280;24099;47.102;15.440;2023-01-25T06:00:40;98584.22;;;0.63;100.00
3668;BME280;24099;47.102;15.440;2023-01-25T06:03:17;98590.66;;;0.72;100.00
3668;BME280;24099;47.102;15.440;2023-01-25T06:05:47;98590.59;;;0.73;100.00
3668;BME280;24099;47.102;15.440;2023-01-25T06:08:15;98597.53;;;0.73;100.00
3668;BME280;24099;47.102;15.440;2023-01-25T06:10:47;98593.00;;;0.76;100.00
3668;BME280;24099;47.102;15.440;2023-01-25T06:13:15;98594.78;;;0.76;100.00
3668;BME280;24099;47.102;15.440;2023-01-25T06:15:50;98594.00;;;0.74;100.00
3668;BME280;24099;47.102;15.440;2023-01-25T06:18:52;98602.25;;;0.80;100.00
3668;BME280;24099;47.102;15.440;2023-01-25T06:21:38;98605.69;;;0.81;100.00
3668;BME280;24099;47.102;15.440;2023-01-25T06:24:07;98604.69;;;0.83;100.00
3668;BME280;24099;47.102;15.440;2023-01-25T06:26:34;98606.44;;;0.83;100.00
3668;BME280;24099;47.102;15.440;2023-01-25T06:29:04;98608.78;;;0.87;100.00
3668;BME280;24099;47.102;15.440;2023-01-25T06:31:33;98612.13;;;0.89;100.00
3668;BME280;24099;47.102;15.440;2023-01-25T06:34:01;98615.72;;;0.87;100.00
3668;BME280;24099;47.102;15.440;2023-01-25T06:36:33;98609.78;;;0.85;100.00
3668;BME280;24099;47.102;15.440;2023-01-25T06:39:05;98614.03;;;0.86;100.00
3668;BME280;24099;47.102;15.440;2023-01-25T06:41:32;98619.22;;;0.86;100.00
3668;BME280;24099;47.102;15.440;2023-01-25T06:44:00;98624.25;;;0.89;100.00
3668;BME280;24099;47.102;15.440;2023-01-25T06:46:31;98627.59;;;0.91;100.00
3668;BME280;24099;47.102;15.440;2023-01-25T06:49:00;98635.13;;;0.95;100.00
3668;BME280;24099;47.102;15.440;2023-01-25T06:51:28;98626.50;;;0.95;100.00
3668;BME280;24099;47.102;15.440;2023-01-25T06:53:56;98623.00;;;0.96;100.00
3668;BME280;24099;47.102;15.440;2023-01-25T06:56:30;98629.09;;;0.95;100.00
3668;BME280;24099;47.102;15.440;2023-01-25T06:58:59;98622.31;;;0.92;100.00
3668;BME280;24099;47.102;15.440;2023-01-25T07:01:26;98620.56;;;0.93;100.00
3668;BME280;24099;47.102;15.440;2023-01-25T07:03:58;98620.81;;;0.88;100.00
3668;BME280;24099;47.102;15.440;2023-01-25T07:06:31;98621.56;;;0.90;100.00
3668;BME280;24099;47.102;15.440;2023-01-25T07:09:04;98623.91;;;0.95;100.00
3668;BME280;24099;47.102;15.440;2023-01-25T07:11:34;98615.03;;;0.99;100.00
3668;BME280;24099;47.102;15.440;2023-01-25T07:14:03;98613.94;;;1.03;100.00
3668;BME280;24099;47.102;15.440;2023-01-25T07:16:31;98604.22;;;1.07;100.00
3668;BME280;24099;47.102;15.440;2023-01-25T07:19:02;98609.31;;;1.08;100.00
3668;BME280;24099;47.102;15.440;2023-01-25T07:21:33;98607.66;;;1.07;100.00
3668;BME280;24099;47.102;15.440;2023-01-25T07:24:02;98598.94;;;1.08;100.00
3668;BME280;24099;47.102;15.440;2023-01-25T07:26:30;98587.66;;;1.09;100.00
3668;BME280;24099;47.102;15.440;2023-01-25T07:29:07;98588.41;;;1.11;100.00
3668;BME280;24099;47.102;15.440;2023-01-25T07:31:37;98590.25;;;1.09;100.00
3668;BME280;24099;47.102;15.440;2023-01-25T07:34:08;98594.00;;;1.19;100.00
3668;BME280;24099;47.102;15.440;2023-01-25T07:36:39;98580.38;;;1.16;100.00
3668;BME280;24099;47.102;15.440;2023-01-25T07:39:10;98580.56;;;1.13;100.00
3668;BME280;24099;47.102;15.440;2023-01-25T07:41:41;98574.13;;;1.04;100.00
3668;BME280;24099;47.102;15.440;2023-01-25T07:44:16;98576.19;;;1.13;100.00
3668;BME280;24099;47.102;15.440;2023-01-25T07:46:46;98572.69;;;1.14;100.00
3668;BME280;24099;47.102;15.440;2023-01-25T07:49:15;98567.84;;;1.08;100.00
3668;BME280;24099;47.102;15.440;2023-01-25T07:51:43;98567.66;;;1.11;100.00
3668;BME280;24099;47.102;15.440;2023-01-25T07:54:14;98572.44;;;1.19;100.00
3668;BME280;24099;47.102;15.440;2023-01-25T07:56:41;98573.72;;;1.26;100.00
3668;BME280;24099;47.102;15.440;2023-01-25T07:59:10;98574.38;;;1.29;100.00
3668;BME280;24099;47.102;15.440;2023-01-25T08:01:40;98571.78;;;1.29;100.00
3668;BME280;24099;47.102;15.440;2023-01-25T08:04:09;98573.28;;;1.33;100.00
3668;BME280;24099;47.102;15.440;2023-01-25T08:06:37;98572.44;;;1.33;100.00
3668;BME280;24099;47.102;15.440;2023-01-25T08:09:07;98563.66;;;1.35;100.00
3668;BME280;24099;47.102;15.440;2023-01-25T08:11:34;98565.25;;;1.38;100.00
3668;BME280;24099;47.102;15.440;2023-01-25T08:14:02;98567.91;;;1.36;100.00
3668;BME280;24099;47.102;15.440;2023-01-25T08:16:32;98566.91;;;1.39;100.00
3668;BME280;24099;47.102;15.440;2023-01-25T08:19:02;98561.81;;;1.37;100.00
3668;BME280;24099;47.102;15.440;2023-01-25T08:21:32;98563.09;;;1.45;100.00
3668;BME280;24099;47.102;15.440;2023-01-25T08:24:02;98568.19;;;1.46;100.00
3668;BME280;24099;47.102;15.440;2023-01-25T08:26:31;98567.38;;;1.46;100.00
3668;BME280;24099;47.102;15.440;2023-01-25T08:28:59;98575.41;;;1.41;100.00
3668;BME280;24099;47.102;15.440;2023-01-25T08:31:28;98580.59;;;1.41;100.00
3668;BME280;24099;47.102;15.440;2023-01-25T08:34:01;98579.03;;;1.38;100.00
3668;BME280;24099;47.102;15.440;2023-01-25T08:36:29;98575.53;;;1.40;100.00
3668;BME280;24099;47.102;15.440;2023-01-25T08:39:00;98576.44;;;1.38;100.00
3668;BME280;24099;47.102;15.440;2023-01-25T08:41:33;98578.94;;;1.40;100.00
3668;BME280;24099;47.102;15.440;2023-01-25T08:44:01;98574.88;;;1.50;100.00
3668;BME280;24099;47.102;15.440;2023-01-25T08:46:31;98575.44;;;1.55;100.00
3668;BME280;24099;47.102;15.440;2023-01-25T08:49:01;98568.50;;;1.56;100.00
3668;BME280;24099;47.102;15.440;2023-01-25T08:51:31;98568.69;;;1.53;100.00
3668;BME280;24099;47.102;15.440;2023-01-25T08:54:02;98569.34;;;1.56;100.00
3668;BME280;24099;47.102;15.440;2023-01-25T08:56:30;98563.00;;;1.60;100.00
3668;BME280;24099;47.102;15.440;2023-01-25T08:59:00;98563.75;;;1.62;100.00
3668;BME280;24099;47.102;15.440;2023-01-25T09:01:27;98565.06;;;1.69;100.00
3668;BME280;24099;47.102;15.440;2023-01-25T09:04:02;98564.41;;;1.66;100.00
3668;BME280;24099;47.102;15.440;2023-01-25T09:06:30;98563.66;;;1.64;100.00
3668;BME280;24099;47.102;15.440;2023-01-25T09:08:58;98559.50;;;1.61;100.00
3668;BME280;24099;47.102;15.440;2023-01-25T09:11:28;98555.13;;;1.62;100.00
3668;BME280;24099;47.102;15.440;2023-01-25T09:13:56;98558.22;;;1.68;100.00
3668;BME280;24099;47.102;15.440;2023-01-25T09:16:24;98559.41;;;1.63;100.00
3668;BME280;24099;47.102;15.440;2023-01-25T09:18:56;98560.25;;;1.63;100.00
3668;BME280;24099;47.102;15.440;2023-01-25T09:21:26;98563.59;;;1.65;100.00
3668;BME280;24099;47.102;15.440;2023-01-25T09:23:54;98565.44;;;1.63;100.00
3668;BME280;24099;47.102;15.440;2023-01-25T09:26:22;98552.00;;;1.71;100.00
3668;BME280;24099;47.102;15.440;2023-01-25T09:28:52;98551.06;;;1.72;100.00
3668;BME280;24099;47.102;15.440;2023-01-25T09:31:23;98547.47;;;1.75;100.00
3668;BME280;24099;47.102;15.440;2023-01-25T09:34:12;98543.28;;;1.72;100.00
3668;BME280;24099;47.102;15.440;2023-01-25T09:36:42;98536.53;;;1.69;100.00
3668;BME280;24099;47.102;15.440;2023-01-25T09:39:11;98544.97;;;1.73;100.00
3668;BME280;24099;47.102;15.440;2023-01-25T09:44:46;98532.72;;;1.89;100.00
3668;BME280;24099;47.102;15.440;2023-01-25T09:47:20;98530.41;;;1.99;100.00
3668;BME280;24099;47.102;15.440;2023-01-25T09:50:09;98529.16;;;2.04;100.00
3668;BME280;24099;47.102;15.440;2023-01-25T09:55:55;98519.38;;;1.95;100.00
3668;BME280;24099;47.102;15.440;2023-01-25T09:58:29;98520.63;;;2.02;100.00
3668;BME280;24099;47.102;15.440;2023-01-25T10:01:15;98517.09;;;2.03;100.00
3668;BME280;24099;47.102;15.440;2023-01-25T10:03:54;98511.59;;;2.22;100.00
3668;BME280;24099;47.102;15.440;2023-01-25T10:06:36;98505.47;;;2.23;100.00
3668;BME280;24099;47.102;15.440;2023-01-25T10:09:14;98512.09;;;2.15;100.00
3668;BME280;24099;47.102;15.440;2023-01-25T10:11:44;98499.44;;;2.23;100.00
3668;BME280;24099;47.102;15.440;2023-01-25T10:14:15;98499.91;;;2.29;100.00
3668;BME280;24099;47.102;15.440;2023-01-25T10:17:00;98493.03;;;2.28;100.00
3668;BME280;24099;47.102;15.440;2023-01-25T10:19:40;98487.47;;;2.20;100.00
3668;BME280;24099;47.102;15.440;2023-01-25T10:22:16;98487.34;;;2.09;100.00
3668;BME280;24099;47.102;15.440;2023-01-25T10:25:10;98480.19;;;2.13;100.00
3668;BME280;24099;47.102;15.440;2023-01-25T10:27:44;98475.78;;;2.27;100.00
3668;BME280;24099;47.102;15.440;2023-01-25T10:30:24;98472.72;;;2.21;100.00
3668;BME280;24099;47.102;15.440;2023-01-25T10:32:56;98454.25;;;2.25;100.00
3668;BME280;24099;47.102;15.440;2023-01-25T10:35:27;98454.56;;;2.21;100.00
3668;BME280;24099;47.102;15.440;2023-01-25T10:38:00;98451.81;;;2.36;100.00
3668;BME280;24099;47.102;15.440;2023-01-25T10:40:38;98449.22;;;2.36;100.00
3668;BME280;24099;47.102;15.440;2023-01-25T10:43:14;98439.34;;;2.41;100.00
3668;BME280;24099;47.102;15.440;2023-01-25T10:45:43;98442.25;;;2.37;100.00
3668;BME280;24099;47.102;15.440;2023-01-25T10:48:14;98445.00;;;2.48;100.00
3668;BME280;24099;47.102;15.440;2023-01-25T10:50:49;98435.50;;;2.34;100.00
3668;BME280;24099;47.102;15.440;2023-01-25T10:53:29;98433.75;;;2.48;100.00
3668;BME280;24099;47.102;15.440;2023-01-25T10:56:02;98434.50;;;2.62;100.00
3668;BME280;24099;47.102;15.440;2023-01-25T10:58:35;98427.66;;;2.61;100.00
3668;BME280;24099;47.102;15.440;2023-01-25T11:01:05;98422.44;;;2.61;100.00
3668;BME280;24099;47.102;15.440;2023-01-25T11:03:37;98419.00;;;2.61;100.00
3668;BME280;24099;47.102;15.440;2023-01-25T11:06:06;98408.75;;;2.59;100.00
3668;BME280;24099;47.102;15.440;2023-01-25T11:08:36;98407.91;;;2.59;100.00
3668;BME280;24099;47.102;15.440;2023-01-25T11:11:26;98407.59;;;2.63;100.00
3668;BME280;24099;47.102;15.440;2023-01-25T11:13:57;98393.88;;;2.61;100.00
3668;BME280;24099;47.102;15.440;2023-01-25T11:16:29;98390.13;;;2.53;100.00
3668;BME280;24099;47.102;15.440;2023-01-25T11:18:59;98383.06;;;2.67;100.00
3668;BME280;24099;47.102;15.440;2023-01-25T11:21:30;98380.47;;;2.80;100.00
3668;BME280;24099;47.102;15.440;2023-01-25T11:24:01;98377.16;;;2.78;100.00
3668;BME280;24099;47.102;15.440;2023-01-25T11:26:32;98376.72;;;2.71;100.00
3668;BME280;24099;47.102;15.440;2023-01-25T11:29:10;98371.88;;;2.80;100.00
3668;BME280;24099;47.102;15.440;2023-01-25T11:31:43;98360.63;;;2.79;100.00
3668;BME280;24099;47.102;15.440;2023-01-25T11:34:15;98360.22;;;2.72;100.00
3668;BME280;24099;47.102;15.440;2023-01-25T11:37:03;98351.38;;;2.75;100.00
3668;BME280;24099;47.102;15.440;2023-01-25T11:39:46;98340.44;;;2.83;100.00
3668;BME280;24099;47.102;15.440;2023-01-25T11:42:29;98342.53;;;2.78;100.00
3668;BME280;24099;47.102;15.440;2023-01-25T11:45:23;98337.94;;;2.81;100.00
3668;BME280;24099;47.102;15.440;2023-01-25T11:48:09;98330.47;;;2.76;100.00
3668;BME280;24099;47.102;15.440;2023-01-25T11:50:44;98326.59;;;2.82;100.00
3668;BME280;24099;47.102;15.440;2023-01-25T11:53:41;98318.06;;;2.80;100.00
3668;BME280;24099;47.102;15.440;2023-01-25T11:56:20;98315.69;;;2.64;100.00
3668;BME280;24099;47.102;15.440;2023-01-25T11:59:08;98306.44;;;2.60;100.00
3668;BME280;24099;47.102;15.440;2023-01-25T12:01:55;98299.06;;;2.67;100.00
3668;BME280;24099;47.102;15.440;2023-01-25T12:04:55;98300.41;;;2.72;100.00
3668;BME280;24099;47.102;15.440;2023-01-25T12:07:36;98294.69;;;2.67;100.00
3668;BME280;24099;47.102;15.440;2023-01-25T12:10:21;98287.94;;;2.65;100.00
3668;BME280;24099;47.102;15.440;2023-01-25T12:12:56;98292.22;;;2.79;100.00
3668;BME280;24099;47.102;15.440;2023-01-25T12:15:37;98285.97;;;2.68;100.00
3668;BME280;24099;47.102;15.440;2023-01-25T12:21:09;98278.91;;;2.70;100.00
3668;BME280;24099;47.102;15.440;2023-01-25T12:23:50;98277.06;;;2.60;100.00
3668;BME280;24099;47.102;15.440;2023-01-25T12:26:23;98273.50;;;2.73;100.00
3668;BME280;24099;47.102;15.440;2023-01-25T12:29:02;98271.94;;;2.71;100.00
3668;BME280;24099;47.102;15.440;2023-01-25T12:31:42;98257.47;;;2.80;100.00
3668;BME280;24099;47.102;15.440;2023-01-25T12:34:17;98251.66;;;2.76;100.00
3668;BME280;24099;47.102;15.440;2023-01-25T12:36:47;98251.88;;;2.73;100.00
3668;BME280;24099;47.102;15.440;2023-01-25T12:39:19;98248.66;;;2.69;100.00
3668;BME280;24099;47.102;15.440;2023-01-25T12:41:56;98241.78;;;2.68;100.00
3668;BME280;24099;47.102;15.440;2023-01-25T12:44:32;98239.59;;;2.75;100.00
3668;BME280;24099;47.102;15.440;2023-01-25T12:47:06;98232.44;;;2.79;100.00
3668;BME280;24099;47.102;15.440;2023-01-25T12:49:40;98229.31;;;2.73;100.00
3668;BME280;24099;47.102;15.440;2023-01-25T12:52:21;98229.59;;;2.82;100.00
3668;BME280;24099;47.102;15.440;2023-01-25T12:54:51;98215.59;;;2.71;100.00
3668;BME280;24099;47.102;15.440;2023-01-25T12:57:23;98212.94;;;2.84;100.00
3668;BME280;24099;47.102;15.440;2023-01-25T13:00:05;98206.09;;;2.83;100.00
3668;BME280;24099;47.102;15.440;2023-01-25T13:03:11;98206.59;;;2.88;100.00
3668;BME280;24099;47.102;15.440;2023-01-25T13:05:49;98201.06;;;2.93;100.00
3668;BME280;24099;47.102;15.440;2023-01-25T13:08:26;98195.03;;;2.92;100.00
3668;BME280;24099;47.102;15.440;2023-01-25T13:11:11;98204.63;;;2.92;100.00
3668;BME280;24099;47.102;15.440;2023-01-25T13:13:40;98196.09;;;2.90;100.00
3668;BME280;24099;47.102;15.440;2023-01-25T13:16:39;98201.72;;;2.84;100.00
3668;BME280;24099;47.102;15.440;2023-01-25T13:19:20;98196.50;;;2.84;100.00
3668;BME280;24099;47.102;15.440;2023-01-25T13:21:49;98199.63;;;2.89;100.00
3668;BME280;24099;47.102;15.440;2023-01-25T13:24:23;98193.19;;;2.82;100.00
3668;BME280;24099;47.102;15.440;2023-01-25T13:27:07;98195.47;;;2.86;100.00
3668;BME280;24099;47.102;15.440;2023-01-25T13:30:00;98191.28;;;2.96;100.00
3668;BME280;24099;47.102;15.440;2023-01-25T13:32:55;98185.91;;;2.87;100.00
3668;BME280;24099;47.102;15.440;2023-01-25T13:35:46;98187.06;;;2.83;100.00
3668;BME280;24099;47.102;15.440;2023-01-25T13:38:31;98183.81;;;2.92;100.00